sensor_id;sensor_type;location;lat;lon;timestamp;P1;durP1;ratioP1;P2;durP2;ratioP2
22282;SDS011;11310;51.528;21.204;2023-02-11T00:01:32;28.70;;;10.18;;
22282;SDS011;11310;51.528;21.204;2023-02-11T00:04:03;26.05;;;9.63;;
22282;SDS011;11310;51.528;21.204;2023-02-11T00:06:34;29.00;;;10.88;;
22282;SDS011;11310;51.528;21.204;2023-02-11T00:09:03;30.05;;;10.68;;
22282;SDS011;11310;51.528;21.204;2023-02-11T00:11:32;31.60;;;10.52;;
22282;SDS011;11310;51.528;21.204;2023-02-11T00:14:02;28.85;;;10.80;;
22282;SDS011;11310;51.528;21.204;2023-02-11T00:16:36;30.35;;;11.50;;
22282;SDS011;11310;51.528;21.204;2023-02-11T00:19:06;24.90;;;10.50;;
22282;SDS011;11310;51.528;21.204;2023-02-11T00:21:36;29.05;;;10.93;;
22282;SDS011;11310;51.528;21.204;2023-02-11T00:24:05;23.67;;;8.77;;
22282;SDS011;11310;51.528;21.204;2023-02-11T00:26:35;24.08;;;10.43;;
22282;SDS011;11310;51.528;21.204;2023-02-11T00:29:04;28.25;;;9.98;;
22282;SDS011;11310;51.528;21.204;2023-02-11T00:31:33;26.35;;;10.50;;
22282;SDS011;11310;51.528;21.204;2023-02-11T00:34:05;27.13;;;10.57;;
22282;SDS011;11310;51.528;21.204;2023-02-11T00:36:35;22.87;;;8.73;;
22282;SDS011;11310;51.528;21.204;2023-02-11T00:39:05;24.15;;;10.02;;
22282;SDS011;11310;51.528;21.204;2023-02-11T00:41:35;26.95;;;10.00;;
22282;SDS011;11310;51.528;21.204;2023-02-11T00:44:04;23.67;;;9.50;;
22282;SDS011;11310;51.528;21.204;2023-02-11T00:46:33;27.30;;;9.35;;
22282;SDS011;11310;51.528;21.204;2023-02-11T00:49:02;23.17;;;9.73;;
22282;SDS011;11310;51.528;21.204;2023-02-11T00:51:31;24.77;;;9.85;;
22282;SDS011;11310;51.528;21.204;2023-02-11T00:54:02;24.15;;;9.10;;
22282;SDS011;11310;51.528;21.204;2023-02-11T00:56:31;23.05;;;9.80;;
22282;SDS011;11310;51.528;21.204;2023-02-11T00:59:00;25.48;;;8.93;;
22282;SDS011;11310;51.528;21.204;2023-02-11T01:01:29;24.90;;;9.85;;
22282;SDS011;11310;51.528;21.204;2023-02-11T01:03:57;27.50;;;8.38;;
22282;SDS011;11310;51.528;21.204;2023-02-11T01:06:26;25.63;;;9.57;;
22282;SDS011;11310;51.528;21.204;2023-02-11T01:08:55;24.60;;;8.50;;
22282;SDS011;11310;51.528;21.204;2023-02-11T01:11:24;25.80;;;9.32;;
22282;SDS011;11310;51.528;21.204;2023-02-11T01:13:52;31.48;;;9.80;;
22282;SDS011;11310;51.528;21.204;2023-02-11T01:16:21;27.35;;;9.40;;
22282;SDS011;11310;51.528;21.204;2023-02-11T01:18:52;24.85;;;8.80;;
22282;SDS011;11310;51.528;21.204;2023-02-11T01:21:20;18.45;;;8.13;;
22282;SDS011;11310;51.528;21.204;2023-02-11T01:23:50;21.48;;;7.97;;
22282;SDS011;11310;51.528;21.204;2023-02-11T01:26:21;21.58;;;8.15;;
22282;SDS011;11310;51.528;21.204;2023-02-11T01:28:50;19.88;;;7.75;;
22282;SDS011;11310;51.528;21.204;2023-02-11T01:31:19;22.38;;;7.65;;
22282;SDS011;11310;51.528;21.204;2023-02-11T01:33:48;21.08;;;7.53;;
22282;SDS011;11310;51.528;21.204;2023-02-11T01:36:19;24.48;;;8.07;;
22282;SDS011;11310;51.528;21.204;2023-02-11T01:38:55;15.68;;;7.35;;
22282;SDS011;11310;51.528;21.204;2023-02-11T01:41:27;20.65;;;7.65;;
22282;SDS011;11310;51.528;21.204;2023-02-11T01:43:57;19.70;;;7.35;;
22282;SDS011;11310;51.528;21.204;2023-02-11T01:46:31;17.95;;;7.40;;
22282;SDS011;11310;51.528;21.204;2023-02-11T01:49:05;23.15;;;7.93;;
22282;SDS011;11310;51.528;21.204;2023-02-11T01:51:39;18.75;;;6.82;;
22282;SDS011;11310;51.528;21.204;2023-02-11T01:54:15;18.88;;;7.10;;
22282;SDS011;11310;51.528;21.204;2023-02-11T01:57:10;24.33;;;7.65;;
22282;SDS011;11310;51.528;21.204;2023-02-11T02:00:04;20.10;;;6.72;;
22282;SDS011;11310;51.528;21.204;2023-02-11T02:02:45;16.73;;;6.70;;
22282;SDS011;11310;51.528;21.204;2023-02-11T02:05:25;21.45;;;7.47;;
22282;SDS011;11310;51.528;21.204;2023-02-11T02:08:02;18.92;;;7.70;;
22282;SDS011;11310;51.528;21.204;2023-02-11T02:10:36;22.50;;;7.35;;
22282;SDS011;11310;51.528;21.204;2023-02-11T02:13:10;20.80;;;6.93;;
22282;SDS011;11310;51.528;21.204;2023-02-11T02:15:40;15.82;;;6.70;;
22282;SDS011;11310;51.528;21.204;2023-02-11T02:18:15;16.60;;;6.75;;
22282;SDS011;11310;51.528;21.204;2023-02-11T02:24:02;23.10;;;6.65;;
22282;SDS011;11310;51.528;21.204;2023-02-11T02:27:02;15.27;;;6.30;;
22282;SDS011;11310;51.528;21.204;2023-02-11T02:33:03;17.60;;;6.97;;
22282;SDS011;11310;51.528;21.204;2023-02-11T02:35:51;21.38;;;6.72;;
22282;SDS011;11310;51.528;21.204;2023-02-11T02:38:26;17.33;;;6.28;;
22282;SDS011;11310;51.528;21.204;2023-02-11T02:40:59;12.85;;;5.32;;
22282;SDS011;11310;51.528;21.204;2023-02-11T02:43:31;13.80;;;5.40;;
22282;SDS011;11310;51.528;21.204;2023-02-11T02:46:10;15.32;;;5.63;;
22282;SDS011;11310;51.528;21.204;2023-02-11T02:48:41;15.40;;;6.32;;
22282;SDS011;11310;51.528;21.204;2023-02-11T02:51:14;14.25;;;5.85;;
22282;SDS011;11310;51.528;21.204;2023-02-11T02:53:55;16.85;;;5.90;;
22282;SDS011;11310;51.528;21.204;2023-02-11T02:56:36;14.43;;;5.05;;
22282;SDS011;11310;51.528;21.204;2023-02-11T02:59:13;12.38;;;4.72;;
22282;SDS011;11310;51.528;21.204;2023-02-11T03:01:56;14.32;;;4.80;;
22282;SDS011;11310;51.528;21.204;2023-02-11T03:04:39;14.73;;;5.03;;
22282;SDS011;11310;51.528;21.204;2023-02-11T03:07:15;13.73;;;4.75;;
22282;SDS011;11310;51.528;21.204;2023-02-11T03:09:50;14.95;;;4.57;;
22282;SDS011;11310;51.528;21.204;2023-02-11T03:12:25;13.02;;;4.00;;
22282;SDS011;11310;51.528;21.204;2023-02-11T03:14:57;14.32;;;5.03;;
22282;SDS011;11310;51.528;21.204;2023-02-11T03:17:28;12.23;;;4.63;;
22282;SDS011;11310;51.528;21.204;2023-02-11T03:20:00;11.97;;;4.70;;
22282;SDS011;11310;51.528;21.204;2023-02-11T03:22:31;15.13;;;4.88;;
22282;SDS011;11310;51.528;21.204;2023-02-11T03:25:06;17.40;;;4.82;;
22282;SDS011;11310;51.528;21.204;2023-02-11T03:27:38;13.33;;;4.67;;
22282;SDS011;11310;51.528;21.204;2023-02-11T03:30:13;16.58;;;4.95;;
22282;SDS011;11310;51.528;21.204;2023-02-11T03:32:48;10.63;;;4.15;;
22282;SDS011;11310;51.528;21.204;2023-02-11T03:35:22;17.45;;;5.22;;
22282;SDS011;11310;51.528;21.204;2023-02-11T03:37:56;14.40;;;5.07;;
22282;SDS011;11310;51.528;21.204;2023-02-11T03:40:29;12.45;;;4.78;;
22282;SDS011;11310;51.528;21.204;2023-02-11T03:43:04;15.23;;;5.13;;
22282;SDS011;11310;51.528;21.204;2023-02-11T03:45:37;17.05;;;5.28;;
22282;SDS011;11310;51.528;21.204;2023-02-11T03:48:10;18.73;;;5.50;;
22282;SDS011;11310;51.528;21.204;2023-02-11T03:50:45;16.00;;;6.10;;
22282;SDS011;11310;51.528;21.204;2023-02-11T03:53:22;16.02;;;5.90;;
22282;SDS011;11310;51.528;21.204;2023-02-11T03:55:52;13.27;;;6.25;;
22282;SDS011;11310;51.528;21.204;2023-02-11T03:58:24;19.25;;;6.43;;
22282;SDS011;11310;51.528;21.204;2023-02-11T04:00:54;18.10;;;6.50;;
22282;SDS011;11310;51.528;21.204;2023-02-11T04:03:23;19.73;;;7.38;;
22282;SDS011;11310;51.528;21.204;2023-02-11T04:05:56;16.58;;;6.13;;
22282;SDS011;11310;51.528;21.204;2023-02-11T04:08:25;18.50;;;6.10;;
22282;SDS011;11310;51.528;21.204;2023-02-11T04:10:54;16.25;;;6.55;;
22282;SDS011;11310;51.528;21.204;2023-02-11T04:13:23;19.58;;;6.57;;
22282;SDS011;11310;51.528;21.204;2023-02-11T04:15:53;16.95;;;6.32;;
22282;SDS011;11310;51.528;21.204;2023-02-11T04:18:23;15.93;;;6.85;;
22282;SDS011;11310;51.528;21.204;2023-02-11T04:20:54;16.58;;;6.55;;
22282;SDS011;11310;51.528;21.204;2023-02-11T04:23:25;18.40;;;6.65;;
22282;SDS011;11310;51.528;21.204;2023-02-11T04:25:55;17.80;;;7.10;;
22282;SDS011;11310;51.528;21.204;2023-02-11T04:28:25;18.50;;;6.97;;
22282;SDS011;11310;51.528;21.204;2023-02-11T04:31:04;18.73;;;7.07;;
22282;SDS011;11310;51.528;21.204;2023-02-11T04:33:34;18.83;;;7.63;;
22282;SDS011;11310;51.528;21.204;2023-02-11T04:36:05;25.45;;;8.20;;
22282;SDS011;11310;51.528;21.204;2023-02-11T04:38:35;17.55;;;6.85;;
22282;SDS011;11310;51.528;21.204;2023-02-11T04:41:04;19.58;;;7.35;;
22282;SDS011;11310;51.528;21.204;2023-02-11T04:43:34;19.50;;;8.05;;
22282;SDS011;11310;51.528;21.204;2023-02-11T04:46:03;18.92;;;7.43;;
22282;SDS011;11310;51.528;21.204;2023-02-11T04:48:33;20.52;;;7.82;;
22282;SDS011;11310;51.528;21.204;2023-02-11T04:51:04;20.40;;;8.18;;
22282;SDS011;11310;51.528;21.204;2023-02-11T04:53:33;19.55;;;8.05;;
22282;SDS011;11310;51.528;21.204;2023-02-11T04:56:02;18.73;;;8.35;;
22282;SDS011;11310;51.528;21.204;2023-02-11T04:58:32;22.38;;;7.97;;
22282;SDS011;11310;51.528;21.204;2023-02-11T05:01:04;20.15;;;7.75;;
22282;SDS011;11310;51.528;21.204;2023-02-11T05:03:35;19.75;;;7.63;;
22282;SDS011;11310;51.528;21.204;2023-02-11T05:06:08;19.88;;;8.25;;
22282;SDS011;11310;51.528;21.204;2023-02-11T05:08:38;20.75;;;7.78;;
22282;SDS011;11310;51.528;21.204;2023-02-11T05:11:08;19.65;;;7.80;;
22282;SDS011;11310;51.528;21.204;2023-02-11T05:13:44;22.38;;;8.13;;
22282;SDS011;11310;51.528;21.204;2023-02-11T05:16:14;22.95;;;8.40;;
22282;SDS011;11310;51.528;21.204;2023-02-11T05:18:48;23.70;;;7.75;;
22282;SDS011;11310;51.528;21.204;2023-02-11T05:21:20;16.85;;;7.65;;
22282;SDS011;11310;51.528;21.204;2023-02-11T05:23:50;18.38;;;7.90;;
22282;SDS011;11310;51.528;21.204;2023-02-11T05:26:19;22.42;;;9.20;;
22282;SDS011;11310;51.528;21.204;2023-02-11T05:28:48;21.42;;;8.27;;
22282;SDS011;11310;51.528;21.204;2023-02-11T05:31:17;21.13;;;8.05;;
22282;SDS011;11310;51.528;21.204;2023-02-11T05:33:47;24.42;;;10.10;;
22282;SDS011;11310;51.528;21.204;2023-02-11T05:36:18;26.58;;;10.88;;
22282;SDS011;11310;51.528;21.204;2023-02-11T05:38:49;18.00;;;8.05;;
22282;SDS011;11310;51.528;21.204;2023-02-11T05:41:20;23.37;;;9.20;;
22282;SDS011;11310;51.528;21.204;2023-02-11T05:43:50;27.27;;;9.63;;
22282;SDS011;11310;51.528;21.204;2023-02-11T05:46:20;21.80;;;9.65;;
22282;SDS011;11310;51.528;21.204;2023-02-11T05:48:51;22.10;;;9.45;;
22282;SDS011;11310;51.528;21.204;2023-02-11T05:51:24;20.63;;;10.13;;
22282;SDS011;11310;51.528;21.204;2023-02-11T05:53:53;24.42;;;10.25;;
22282;SDS011;11310;51.528;21.204;2023-02-11T05:56:23;22.95;;;9.43;;
22282;SDS011;11310;51.528;21.204;2023-02-11T05:58:53;18.15;;;8.90;;
22282;SDS011;11310;51.528;21.204;2023-02-11T06:01:26;26.35;;;10.70;;
22282;SDS011;11310;51.528;21.204;2023-02-11T06:03:57;21.83;;;9.02;;
22282;SDS011;11310;51.528;21.204;2023-02-11T06:06:28;26.52;;;10.48;;
22282;SDS011;11310;51.528;21.204;2023-02-11T06:08:58;24.00;;;10.05;;
22282;SDS011;11310;51.528;21.204;2023-02-11T06:11:27;25.10;;;10.15;;
22282;SDS011;11310;51.528;21.204;2023-02-11T06:13:56;23.50;;;10.77;;
22282;SDS011;11310;51.528;21.204;2023-02-11T06:16:25;23.92;;;10.70;;
22282;SDS011;11310;51.528;21.204;2023-02-11T06:18:55;25.40;;;10.77;;
22282;SDS011;11310;51.528;21.204;2023-02-11T06:21:24;26.52;;;10.98;;
22282;SDS011;11310;51.528;21.204;2023-02-11T06:24:11;26.30;;;10.93;;
22282;SDS011;11310;51.528;21.204;2023-02-11T06:26:43;24.27;;;11.23;;
22282;SDS011;11310;51.528;21.204;2023-02-11T06:29:12;25.70;;;10.63;;
22282;SDS011;11310;51.528;21.204;2023-02-11T06:31:48;28.27;;;11.65;;
22282;SDS011;11310;51.528;21.204;2023-02-11T06:34:27;24.98;;;11.45;;
22282;SDS011;11310;51.528;21.204;2023-02-11T06:36:56;30.77;;;13.02;;
22282;SDS011;11310;51.528;21.204;2023-02-11T06:39:27;25.30;;;11.13;;
22282;SDS011;11310;51.528;21.204;2023-02-11T06:41:55;26.52;;;11.30;;
22282;SDS011;11310;51.528;21.204;2023-02-11T06:44:23;28.15;;;11.82;;
22282;SDS011;11310;51.528;21.204;2023-02-11T06:46:52;34.90;;;13.40;;
22282;SDS011;11310;51.528;21.204;2023-02-11T06:49:21;32.95;;;13.90;;
22282;SDS011;11310;51.528;21.204;2023-02-11T06:51:49;28.92;;;13.45;;
22282;SDS011;11310;51.528;21.204;2023-02-11T06:54:18;29.42;;;12.65;;
22282;SDS011;11310;51.528;21.204;2023-02-11T06:56:48;29.30;;;12.65;;
22282;SDS011;11310;51.528;21.204;2023-02-11T06:59:17;33.40;;;13.85;;
22282;SDS011;11310;51.528;21.204;2023-02-11T07:01:47;32.53;;;13.27;;
22282;SDS011;11310;51.528;21.204;2023-02-11T07:04:15;32.53;;;13.70;;
22282;SDS011;11310;51.528;21.204;2023-02-11T07:06:45;33.78;;;13.65;;
22282;SDS011;11310;51.528;21.204;2023-02-11T07:09:13;31.90;;;14.20;;
22282;SDS011;11310;51.528;21.204;2023-02-11T07:11:42;34.30;;;14.50;;
22282;SDS011;11310;51.528;21.204;2023-02-11T07:14:11;31.77;;;14.77;;
22282;SDS011;11310;51.528;21.204;2023-02-11T07:16:40;34.13;;;14.43;;
22282;SDS011;11310;51.528;21.204;2023-02-11T07:19:09;31.15;;;14.40;;
22282;SDS011;11310;51.528;21.204;2023-02-11T07:21:38;35.05;;;14.23;;
22282;SDS011;11310;51.528;21.204;2023-02-11T07:24:08;33.88;;;14.05;;
22282;SDS011;11310;51.528;21.204;2023-02-11T07:26:38;35.05;;;14.60;;
22282;SDS011;11310;51.528;21.204;2023-02-11T07:29:09;33.13;;;14.55;;
22282;SDS011;11310;51.528;21.204;2023-02-11T07:31:40;38.58;;;16.52;;
22282;SDS011;11310;51.528;21.204;2023-02-11T07:34:11;40.92;;;17.60;;
22282;SDS011;11310;51.528;21.204;2023-02-11T07:36:40;40.92;;;17.92;;
22282;SDS011;11310;51.528;21.204;2023-02-11T07:39:11;44.70;;;17.37;;
22282;SDS011;11310;51.528;21.204;2023-02-11T07:41:40;38.80;;;16.27;;
22282;SDS011;11310;51.528;21.204;2023-02-11T07:44:10;34.97;;;14.75;;
22282;SDS011;11310;51.528;21.204;2023-02-11T07:46:40;31.40;;;14.82;;
22282;SDS011;11310;51.528;21.204;2023-02-11T07:49:11;31.27;;;12.65;;
22282;SDS011;11310;51.528;21.204;2023-02-11T07:51:39;35.33;;;13.00;;
22282;SDS011;11310;51.528;21.204;2023-02-11T07:54:09;33.17;;;14.45;;
22282;SDS011;11310;51.528;21.204;2023-02-11T07:56:39;28.98;;;13.48;;
22282;SDS011;11310;51.528;21.204;2023-02-11T07:59:09;29.88;;;13.32;;
22282;SDS011;11310;51.528;21.204;2023-02-11T08:01:38;29.27;;;13.60;;
22282;SDS011;11310;51.528;21.204;2023-02-11T08:04:08;31.75;;;13.68;;
22282;SDS011;11310;51.528;21.204;2023-02-11T08:06:39;31.27;;;13.88;;
22282;SDS011;11310;51.528;21.204;2023-02-11T08:09:10;31.80;;;13.98;;
22282;SDS011;11310;51.528;21.204;2023-02-11T08:11:41;34.28;;;14.18;;
22282;SDS011;11310;51.528;21.204;2023-02-11T08:14:10;30.00;;;13.18;;
22282;SDS011;11310;51.528;21.204;2023-02-11T08:16:39;29.83;;;12.75;;
22282;SDS011;11310;51.528;21.204;2023-02-11T08:19:11;29.95;;;12.82;;
22282;SDS011;11310;51.528;21.204;2023-02-11T08:21:41;34.80;;;13.82;;
22282;SDS011;11310;51.528;21.204;2023-02-11T08:24:10;27.63;;;13.52;;
22282;SDS011;11310;51.528;21.204;2023-02-11T08:26:40;32.42;;;13.23;;
22282;SDS011;11310;51.528;21.204;2023-02-11T08:29:10;29.80;;;13.45;;
22282;SDS011;11310;51.528;21.204;2023-02-11T08:31:41;36.08;;;14.25;;
22282;SDS011;11310;51.528;21.204;2023-02-11T08:36:44;30.85;;;13.60;;
22282;SDS011;11310;51.528;21.204;2023-02-11T08:39:14;29.95;;;13.02;;
22282;SDS011;11310;51.528;21.204;2023-02-11T08:41:46;26.80;;;12.80;;
22282;SDS011;11310;51.528;21.204;2023-02-11T08:44:15;28.83;;;12.63;;
22282;SDS011;11310;51.528;21.204;2023-02-11T08:46:45;31.92;;;14.60;;
22282;SDS011;11310;51.528;21.204;2023-02-11T08:49:15;30.27;;;13.43;;
22282;SDS011;11310;51.528;21.204;2023-02-11T08:51:44;29.67;;;13.02;;
22282;SDS011;11310;51.528;21.204;2023-02-11T08:54:14;31.85;;;14.52;;
22282;SDS011;11310;51.528;21.204;2023-02-11T08:56:43;32.25;;;14.45;;
22282;SDS011;11310;51.528;21.204;2023-02-11T08:59:13;31.35;;;13.60;;
22282;SDS011;11310;51.528;21.204;2023-02-11T09:01:43;33.75;;;13.98;;
22282;SDS011;11310;51.528;21.204;2023-02-11T09:04:13;30.92;;;13.85;;
22282;SDS011;11310;51.528;21.204;2023-02-11T09:06:43;28.88;;;14.60;;
22282;SDS011;11310;51.528;21.204;2023-02-11T09:09:13;29.98;;;13.43;;
22282;SDS011;11310;51.528;21.204;2023-02-11T09:11:42;33.75;;;14.38;;
22282;SDS011;11310;51.528;21.204;2023-02-11T09:14:16;32.63;;;13.57;;
22282;SDS011;11310;51.528;21.204;2023-02-11T09:16:46;29.75;;;14.15;;
22282;SDS011;11310;51.528;21.204;2023-02-11T09:19:18;27.63;;;13.40;;
22282;SDS011;11310;51.528;21.204;2023-02-11T09:21:48;32.08;;;15.70;;
22282;SDS011;11310;51.528;21.204;2023-02-11T09:24:17;28.80;;;13.30;;
22282;SDS011;11310;51.528;21.204;2023-02-11T09:26:46;31.90;;;13.55;;
22282;SDS011;11310;51.528;21.204;2023-02-11T09:29:16;31.10;;;14.25;;
22282;SDS011;11310;51.528;21.204;2023-02-11T09:31:45;29.42;;;13.40;;
22282;SDS011;11310;51.528;21.204;2023-02-11T09:34:13;28.88;;;13.25;;
22282;SDS011;11310;51.528;21.204;2023-02-11T09:36:42;30.80;;;13.90;;
22282;SDS011;11310;51.528;21.204;2023-02-11T09:39:14;27.67;;;13.95;;
22282;SDS011;11310;51.528;21.204;2023-02-11T09:44:37;28.48;;;13.80;;
22282;SDS011;11310;51.528;21.204;2023-02-11T09:47:13;34.20;;;13.20;;
22282;SDS011;11310;51.528;21.204;2023-02-11T09:49:51;25.80;;;13.00;;
22282;SDS011;11310;51.528;21.204;2023-02-11T09:52:28;28.83;;;13.38;;
22282;SDS011;11310;51.528;21.204;2023-02-11T09:55:02;32.13;;;13.70;;
22282;SDS011;11310;51.528;21.204;2023-02-11T09:57:34;28.38;;;13.88;;
22282;SDS011;11310;51.528;21.204;2023-02-11T10:00:11;29.25;;;13.02;;
22282;SDS011;11310;51.528;21.204;2023-02-11T10:02:53;30.45;;;13.52;;
22282;SDS011;11310;51.528;21.204;2023-02-11T10:05:39;28.83;;;12.52;;
22282;SDS011;11310;51.528;21.204;2023-02-11T10:08:25;27.02;;;12.88;;
22282;SDS011;11310;51.528;21.204;2023-02-11T10:11:00;26.88;;;12.50;;
22282;SDS011;11310;51.528;21.204;2023-02-11T10:13:46;30.33;;;13.00;;
22282;SDS011;11310;51.528;21.204;2023-02-11T10:16:34;26.65;;;12.13;;
22282;SDS011;11310;51.528;21.204;2023-02-11T10:19:24;23.75;;;10.75;;
22282;SDS011;11310;51.528;21.204;2023-02-11T10:22:09;24.15;;;11.75;;
22282;SDS011;11310;51.528;21.204;2023-02-11T10:24:42;23.70;;;11.82;;
22282;SDS011;11310;51.528;21.204;2023-02-11T10:27:20;24.77;;;11.18;;
22282;SDS011;11310;51.528;21.204;2023-02-11T10:29:52;22.85;;;11.20;;
22282;SDS011;11310;51.528;21.204;2023-02-11T10:32:28;26.63;;;12.18;;
22282;SDS011;11310;51.528;21.204;2023-02-11T10:35:01;25.65;;;11.63;;
22282;SDS011;11310;51.528;21.204;2023-02-11T10:37:38;24.65;;;12.02;;
22282;SDS011;11310;51.528;21.204;2023-02-11T10:40:11;29.02;;;12.43;;
22282;SDS011;11310;51.528;21.204;2023-02-11T10:42:42;26.65;;;12.30;;
22282;SDS011;11310;51.528;21.204;2023-02-11T10:45:15;26.08;;;11.25;;
22282;SDS011;11310;51.528;21.204;2023-02-11T10:47:49;26.35;;;12.15;;
22282;SDS011;11310;51.528;21.204;2023-02-11T10:50:19;26.42;;;12.05;;
22282;SDS011;11310;51.528;21.204;2023-02-11T10:52:52;25.27;;;12.75;;
22282;SDS011;11310;51.528;21.204;2023-02-11T10:55:39;24.10;;;11.90;;
22282;SDS011;11310;51.528;21.204;2023-02-11T10:58:23;27.17;;;11.57;;
22282;SDS011;11310;51.528;21.204;2023-02-11T11:00:55;23.60;;;10.95;;
22282;SDS011;11310;51.528;21.204;2023-02-11T11:03:27;25.83;;;12.50;;
22282;SDS011;11310;51.528;21.204;2023-02-11T11:06:03;22.90;;;11.88;;
22282;SDS011;11310;51.528;21.204;2023-02-11T11:08:37;28.52;;;12.88;;
22282;SDS011;11310;51.528;21.204;2023-02-11T11:11:09;25.55;;;12.80;;
22282;SDS011;11310;51.528;21.204;2023-02-11T11:13:41;24.30;;;12.13;;
22282;SDS011;11310;51.528;21.204;2023-02-11T11:16:22;23.58;;;12.43;;
22282;SDS011;11310;51.528;21.204;2023-02-11T11:19:13;24.42;;;11.32;;
22282;SDS011;11310;51.528;21.204;2023-02-11T11:21:48;22.98;;;12.32;;
22282;SDS011;11310;51.528;21.204;2023-02-11T11:24:19;25.88;;;12.77;;
22282;SDS011;11310;51.528;21.204;2023-02-11T11:26:53;22.40;;;12.23;;
22282;SDS011;11310;51.528;21.204;2023-02-11T11:29:23;24.23;;;12.60;;
22282;SDS011;11310;51.528;21.204;2023-02-11T11:31:58;24.58;;;12.13;;
22282;SDS011;11310;51.528;21.204;2023-02-11T11:34:33;26.67;;;12.35;;
22282;SDS011;11310;51.528;21.204;2023-02-11T11:37:09;25.48;;;12.30;;
22282;SDS011;11310;51.528;21.204;2023-02-11T11:39:40;24.25;;;12.15;;
22282;SDS011;11310;51.528;21.204;2023-02-11T11:42:21;27.40;;;12.32;;
22282;SDS011;11310;51.528;21.204;2023-02-11T11:44:56;28.48;;;12.98;;
22282;SDS011;11310;51.528;21.204;2023-02-11T11:47:33;27.52;;;13.60;;
22282;SDS011;11310;51.528;21.204;2023-02-11T11:50:13;24.48;;;12.35;;
22282;SDS011;11310;51.528;21.204;2023-02-11T11:52:53;24.25;;;11.90;;
22282;SDS011;11310;51.528;21.204;2023-02-11T11:55:27;26.90;;;11.98;;
22282;SDS011;11310;51.528;21.204;2023-02-11T11:58:01;25.60;;;12.23;;
22282;SDS011;11310;51.528;21.204;2023-02-11T12:00:33;23.42;;;11.70;;
22282;SDS011;11310;51.528;21.204;2023-02-11T12:03:14;21.90;;;11.38;;
22282;SDS011;11310;51.528;21.204;2023-02-11T12:06:01;23.98;;;11.18;;
22282;SDS011;11310;51.528;21.204;2023-02-11T12:08:43;21.42;;;11.18;;
22282;SDS011;11310;51.528;21.204;2023-02-11T12:11:23;21.98;;;10.95;;
22282;SDS011;11310;51.528;21.204;2023-02-11T12:14:02;21.42;;;10.70;;
22282;SDS011;11310;51.528;21.204;2023-02-11T12:16:43;24.45;;;11.65;;
22282;SDS011;11310;51.528;21.204;2023-02-11T12:19:20;26.50;;;11.85;;
22282;SDS011;11310;51.528;21.204;2023-02-11T12:22:04;28.52;;;12.77;;
22282;SDS011;11310;51.528;21.204;2023-02-11T12:24:44;28.13;;;12.82;;
22282;SDS011;11310;51.528;21.204;2023-02-11T12:27:28;27.33;;;13.05;;
22282;SDS011;11310;51.528;21.204;2023-02-11T12:30:11;28.13;;;13.13;;
22282;SDS011;11310;51.528;21.204;2023-02-11T12:32:52;26.02;;;13.82;;
22282;SDS011;11310;51.528;21.204;2023-02-11T12:35:34;29.52;;;13.32;;
22282;SDS011;11310;51.528;21.204;2023-02-11T12:38:17;25.77;;;11.85;;
22282;SDS011;11310;51.528;21.204;2023-02-11T12:41:00;25.30;;;12.43;;
22282;SDS011;11310;51.528;21.204;2023-02-11T12:43:42;31.55;;;14.27;;
22282;SDS011;11310;51.528;21.204;2023-02-11T12:46:18;27.10;;;13.63;;
22282;SDS011;11310;51.528;21.204;2023-02-11T12:49:09;25.92;;;13.07;;
22282;SDS011;11310;51.528;21.204;2023-02-11T12:51:51;29.65;;;12.18;;
22282;SDS011;11310;51.528;21.204;2023-02-11T12:54:33;28.05;;;13.32;;
22282;SDS011;11310;51.528;21.204;2023-02-11T12:57:10;26.90;;;13.27;;
22282;SDS011;11310;51.528;21.204;2023-02-11T12:59:46;32.33;;;15.15;;
22282;SDS011;11310;51.528;21.204;2023-02-11T13:02:25;27.05;;;13.27;;
22282;SDS011;11310;51.528;21.204;2023-02-11T13:05:04;26.20;;;12.45;;
22282;SDS011;11310;51.528;21.204;2023-02-11T13:07:42;28.40;;;14.18;;
22282;SDS011;11310;51.528;21.204;2023-02-11T13:10:19;30.13;;;14.73;;
22282;SDS011;11310;51.528;21.204;2023-02-11T13:12:53;28.52;;;14.02;;
22282;SDS011;11310;51.528;21.204;2023-02-11T13:15:41;31.30;;;15.18;;
22282;SDS011;11310;51.528;21.204;2023-02-11T13:18:26;30.83;;;15.38;;
22282;SDS011;11310;51.528;21.204;2023-02-11T13:21:14;32.50;;;13.73;;
22282;SDS011;11310;51.528;21.204;2023-02-11T13:24:01;30.30;;;13.32;;
22282;SDS011;11310;51.528;21.204;2023-02-11T13:26:44;25.45;;;12.50;;
22282;SDS011;11310;51.528;21.204;2023-02-11T13:29:21;30.02;;;12.60;;
22282;SDS011;11310;51.528;21.204;2023-02-11T13:32:04;26.35;;;12.68;;
22282;SDS011;11310;51.528;21.204;2023-02-11T13:34:53;28.38;;;13.13;;
22282;SDS011;11310;51.528;21.204;2023-02-11T13:37:28;27.77;;;12.95;;
22282;SDS011;11310;51.528;21.204;2023-02-11T13:40:04;26.45;;;13.25;;
22282;SDS011;11310;51.528;21.204;2023-02-11T13:42:49;32.70;;;14.73;;
22282;SDS011;11310;51.528;21.204;2023-02-11T13:45:26;31.23;;;13.68;;
22282;SDS011;11310;51.528;21.204;2023-02-11T13:47:57;24.25;;;11.73;;
22282;SDS011;11310;51.528;21.204;2023-02-11T13:50:28;27.38;;;12.93;;
22282;SDS011;11310;51.528;21.204;2023-02-11T13:53:04;27.75;;;12.38;;
22282;SDS011;11310;51.528;21.204;2023-02-11T13:55:34;26.17;;;12.68;;
22282;SDS011;11310;51.528;21.204;2023-02-11T13:58:25;25.40;;;12.77;;
22282;SDS011;11310;51.528;21.204;2023-02-11T14:01:05;24.70;;;11.80;;
22282;SDS011;11310;51.528;21.204;2023-02-11T14:03:35;23.27;;;11.80;;
22282;SDS011;11310;51.528;21.204;2023-02-11T14:06:24;22.55;;;11.40;;
22282;SDS011;11310;51.528;21.204;2023-02-11T14:15:20;24.73;;;10.80;;
22282;SDS011;11310;51.528;21.204;2023-02-11T14:17:52;20.75;;;10.48;;
22282;SDS011;11310;51.528;21.204;2023-02-11T14:20:31;21.55;;;10.50;;
22282;SDS011;11310;51.528;21.204;2023-02-11T14:25:31;20.73;;;9.90;;
22282;SDS011;11310;51.528;21.204;2023-02-11T14:28:00;23.55;;;10.80;;
22282;SDS011;11310;51.528;21.204;2023-02-11T14:30:42;22.95;;;10.20;;
22282;SDS011;11310;51.528;21.204;2023-02-11T14:36:43;25.23;;;10.98;;
22282;SDS011;11310;51.528;21.204;2023-02-11T14:39:25;21.00;;;10.43;;
22282;SDS011;11310;51.528;21.204;2023-02-11T14:42:12;26.25;;;10.63;;
22282;SDS011;11310;51.528;21.204;2023-02-11T14:44:45;21.90;;;11.10;;
22282;SDS011;11310;51.528;21.204;2023-02-11T14:47:19;23.25;;;10.52;;
22282;SDS011;11310;51.528;21.204;2023-02-11T14:49:51;23.48;;;11.02;;
22282;SDS011;11310;51.528;21.204;2023-02-11T14:52:25;21.85;;;10.75;;
22282;SDS011;11310;51.528;21.204;2023-02-11T14:54:57;22.25;;;10.85;;
22282;SDS011;11310;51.528;21.204;2023-02-11T14:57:33;27.65;;;12.10;;
22282;SDS011;11310;51.528;21.204;2023-02-11T15:00:04;23.40;;;11.15;;
22282;SDS011;11310;51.528;21.204;2023-02-11T15:02:44;22.33;;;10.55;;
22282;SDS011;11310;51.528;21.204;2023-02-11T15:05:18;24.20;;;10.95;;
22282;SDS011;11310;51.528;21.204;2023-02-11T15:07:49;25.88;;;12.15;;
22282;SDS011;11310;51.528;21.204;2023-02-11T15:10:23;26.15;;;11.98;;
22282;SDS011;11310;51.528;21.204;2023-02-11T15:12:57;27.00;;;11.95;;
22282;SDS011;11310;51.528;21.204;2023-02-11T15:15:28;22.95;;;10.68;;